sensor_id;sensor_type;location;lat;lon;timestamp;P1;durP1;ratioP1;P2;durP2;ratioP2
69981;SDS011;57319;56.274;43.980;2024-02-26T00:01:26;3.53;;;2.10;;
69981;SDS011;57319;56.274;43.980;2024-02-26T00:03:52;1.80;;;1.70;;
69981;SDS011;57319;56.274;43.980;2024-02-26T00:06:19;3.47;;;1.80;;
69981;SDS011;57319;56.274;43.980;2024-02-26T00:08:45;4.40;;;1.83;;
69981;SDS011;57319;56.274;43.980;2024-02-26T00:11:11;1.95;;;1.85;;
69981;SDS011;57319;56.274;43.980;2024-02-26T00:13:37;3.00;;;2.05;;
69981;SDS011;57319;56.274;43.980;2024-02-26T00:16:03;4.97;;;1.70;;
69981;SDS011;57319;56.274;43.980;2024-02-26T00:18:29;2.30;;;1.80;;
69981;SDS011;57319;56.274;43.980;2024-02-26T00:20:55;3.60;;;1.27;;
69981;SDS011;57319;56.274;43.980;2024-02-26T00:23:21;1.90;;;1.80;;
69981;SDS011;57319;56.274;43.980;2024-02-26T00:25:48;3.55;;;2.17;;
69981;SDS011;57319;56.274;43.980;2024-02-26T00:28:13;2.35;;;2.25;;
69981;SDS011;57319;56.274;43.980;2024-02-26T00:30:39;2.00;;;1.90;;
69981;SDS011;57319;56.274;43.980;2024-02-26T00:33:04;8.05;;;2.13;;
69981;SDS011;57319;56.274;43.980;2024-02-26T00:35:30;2.17;;;2.00;;
69981;SDS011;57319;56.274;43.980;2024-02-26T00:37:56;4.63;;;2.38;;
69981;SDS011;57319;56.274;43.980;2024-02-26T00:40:22;2.35;;;1.90;;
69981;SDS011;57319;56.274;43.980;2024-02-26T00:42:47;2.58;;;1.83;;
69981;SDS011;57319;56.274;43.980;2024-02-26T00:45:13;2.15;;;1.48;;
69981;SDS011;57319;56.274;43.980;2024-02-26T00:47:39;4.60;;;2.42;;
69981;SDS011;57319;56.274;43.980;2024-02-26T00:50:09;2.03;;;1.83;;
69981;SDS011;57319;56.274;43.980;2024-02-26T00:52:35;3.45;;;2.08;;
69981;SDS011;57319;56.274;43.980;2024-02-26T00:55:01;2.40;;;2.08;;
69981;SDS011;57319;56.274;43.980;2024-02-26T00:57:29;6.80;;;2.63;;
69981;SDS011;57319;56.274;43.980;2024-02-26T00:59:54;2.90;;;1.88;;
69981;SDS011;57319;56.274;43.980;2024-02-26T01:02:21;2.38;;;1.98;;
69981;SDS011;57319;56.274;43.980;2024-02-26T01:04:47;2.88;;;1.83;;
69981;SDS011;57319;56.274;43.980;2024-02-26T01:07:13;3.50;;;2.35;;
69981;SDS011;57319;56.274;43.980;2024-02-26T01:09:39;2.10;;;2.00;;
69981;SDS011;57319;56.274;43.980;2024-02-26T01:12:05;2.55;;;1.95;;
69981;SDS011;57319;56.274;43.980;2024-02-26T01:14:31;1.58;;;1.52;;
69981;SDS011;57319;56.274;43.980;2024-02-26T01:16:56;3.90;;;2.03;;
69981;SDS011;57319;56.274;43.980;2024-02-26T01:19:22;1.85;;;1.75;;
69981;SDS011;57319;56.274;43.980;2024-02-26T01:21:48;2.40;;;1.88;;
69981;SDS011;57319;56.274;43.980;2024-02-26T01:24:13;5.45;;;2.22;;
69981;SDS011;57319;56.274;43.980;2024-02-26T01:26:40;3.05;;;1.98;;
69981;SDS011;57319;56.274;43.980;2024-02-26T01:29:06;2.03;;;1.92;;
69981;SDS011;57319;56.274;43.980;2024-02-26T01:31:32;4.35;;;2.25;;
69981;SDS011;57319;56.274;43.980;2024-02-26T01:33:58;1.42;;;1.33;;
69981;SDS011;57319;56.274;43.980;2024-02-26T01:36:23;10.10;;;2.80;;
69981;SDS011;57319;56.274;43.980;2024-02-26T01:38:49;2.67;;;2.03;;
69981;SDS011;57319;56.274;43.980;2024-02-26T01:41:14;3.40;;;2.20;;
69981;SDS011;57319;56.274;43.980;2024-02-26T01:43:40;2.42;;;2.25;;
69981;SDS011;57319;56.274;43.980;2024-02-26T01:46:06;2.00;;;1.90;;
69981;SDS011;57319;56.274;43.980;2024-02-26T01:48:39;2.17;;;1.95;;
69981;SDS011;57319;56.274;43.980;2024-02-26T01:51:06;2.45;;;1.90;;
69981;SDS011;57319;56.274;43.980;2024-02-26T01:53:32;2.53;;;2.33;;
69981;SDS011;57319;56.274;43.980;2024-02-26T01:55:58;0.93;;;0.93;;
69981;SDS011;57319;56.274;43.980;2024-02-26T01:58:24;1.92;;;1.83;;
69981;SDS011;57319;56.274;43.980;2024-02-26T02:00:49;2.45;;;2.22;;
69981;SDS011;57319;56.274;43.980;2024-02-26T02:03:15;3.75;;;1.90;;
69981;SDS011;57319;56.274;43.980;2024-02-26T02:05:41;3.45;;;2.72;;
69981;SDS011;57319;56.274;43.980;2024-02-26T02:08:08;2.22;;;2.13;;
69981;SDS011;57319;56.274;43.980;2024-02-26T02:10:36;4.07;;;1.90;;
69981;SDS011;57319;56.274;43.980;2024-02-26T02:13:03;3.20;;;2.13;;
69981;SDS011;57319;56.274;43.980;2024-02-26T02:15:28;2.05;;;2.00;;
69981;SDS011;57319;56.274;43.980;2024-02-26T02:17:54;8.18;;;2.75;;
69981;SDS011;57319;56.274;43.980;2024-02-26T02:20:24;1.77;;;1.42;;
69981;SDS011;57319;56.274;43.980;2024-02-26T02:22:50;4.00;;;2.63;;
69981;SDS011;57319;56.274;43.980;2024-02-26T02:25:16;2.97;;;2.10;;
69981;SDS011;57319;56.274;43.980;2024-02-26T02:27:42;1.83;;;1.73;;
69981;SDS011;57319;56.274;43.980;2024-02-26T02:30:08;2.88;;;2.45;;
69981;SDS011;57319;56.274;43.980;2024-02-26T02:32:35;4.75;;;2.83;;
69981;SDS011;57319;56.274;43.980;2024-02-26T02:35:04;3.75;;;2.63;;
69981;SDS011;57319;56.274;43.980;2024-02-26T02:37:30;3.65;;;2.05;;
69981;SDS011;57319;56.274;43.980;2024-02-26T02:39:56;3.45;;;2.35;;
69981;SDS011;57319;56.274;43.980;2024-02-26T02:42:23;2.35;;;1.90;;
69981;SDS011;57319;56.274;43.980;2024-02-26T02:44:49;2.85;;;2.60;;
69981;SDS011;57319;56.274;43.980;2024-02-26T02:47:14;2.35;;;2.17;;
69981;SDS011;57319;56.274;43.980;2024-02-26T02:49:40;2.80;;;2.55;;
69981;SDS011;57319;56.274;43.980;2024-02-26T02:52:06;1.80;;;1.40;;
69981;SDS011;57319;56.274;43.980;2024-02-26T02:54:31;4.78;;;2.13;;
69981;SDS011;57319;56.274;43.980;2024-02-26T02:56:57;1.00;;;1.00;;
69981;SDS011;57319;56.274;43.980;2024-02-26T02:59:23;2.78;;;2.05;;
69981;SDS011;57319;56.274;43.980;2024-02-26T03:01:48;2.40;;;2.20;;
69981;SDS011;57319;56.274;43.980;2024-02-26T03:04:14;2.50;;;2.30;;
69981;SDS011;57319;56.274;43.980;2024-02-26T03:06:40;2.50;;;2.35;;
69981;SDS011;57319;56.274;43.980;2024-02-26T03:09:05;6.55;;;2.40;;
69981;SDS011;57319;56.274;43.980;2024-02-26T03:11:31;2.95;;;2.30;;
69981;SDS011;57319;56.274;43.980;2024-02-26T03:13:57;2.60;;;2.33;;
69981;SDS011;57319;56.274;43.980;2024-02-26T03:16:22;2.88;;;2.67;;
69981;SDS011;57319;56.274;43.980;2024-02-26T03:18:48;2.75;;;2.55;;
69981;SDS011;57319;56.274;43.980;2024-02-26T03:21:13;2.72;;;2.53;;
69981;SDS011;57319;56.274;43.980;2024-02-26T03:23:39;2.42;;;2.28;;
69981;SDS011;57319;56.274;43.980;2024-02-26T03:26:05;2.78;;;2.58;;
69981;SDS011;57319;56.274;43.980;2024-02-26T03:28:31;4.88;;;2.30;;
69981;SDS011;57319;56.274;43.980;2024-02-26T03:30:59;3.47;;;2.33;;
69981;SDS011;57319;56.274;43.980;2024-02-26T03:33:25;3.08;;;2.78;;
69981;SDS011;57319;56.274;43.980;2024-02-26T03:35:50;4.07;;;2.67;;
69981;SDS011;57319;56.274;43.980;2024-02-26T03:38:16;2.60;;;2.40;;
69981;SDS011;57319;56.274;43.980;2024-02-26T03:40:41;5.18;;;2.72;;
69981;SDS011;57319;56.274;43.980;2024-02-26T03:43:07;15.10;;;2.78;;
69981;SDS011;57319;56.274;43.980;2024-02-26T03:45:33;2.42;;;2.22;;
69981;SDS011;57319;56.274;43.980;2024-02-26T03:47:59;3.05;;;1.83;;
69981;SDS011;57319;56.274;43.980;2024-02-26T03:50:25;4.65;;;2.15;;
69981;SDS011;57319;56.274;43.980;2024-02-26T03:52:50;14.32;;;2.53;;
69981;SDS011;57319;56.274;43.980;2024-02-26T03:55:16;3.75;;;2.42;;
69981;SDS011;57319;56.274;43.980;2024-02-26T03:57:46;4.93;;;2.88;;
69981;SDS011;57319;56.274;43.980;2024-02-26T04:00:12;4.63;;;2.50;;
69981;SDS011;57319;56.274;43.980;2024-02-26T04:02:38;5.30;;;3.15;;
69981;SDS011;57319;56.274;43.980;2024-02-26T04:05:04;2.85;;;2.55;;
69981;SDS011;57319;56.274;43.980;2024-02-26T04:07:30;3.15;;;2.85;;
69981;SDS011;57319;56.274;43.980;2024-02-26T04:09:56;3.67;;;2.65;;
69981;SDS011;57319;56.274;43.980;2024-02-26T04:12:23;4.78;;;2.97;;
69981;SDS011;57319;56.274;43.980;2024-02-26T04:14:48;4.80;;;2.67;;
69981;SDS011;57319;56.274;43.980;2024-02-26T04:17:14;8.60;;;2.28;;
69981;SDS011;57319;56.274;43.980;2024-02-26T04:19:40;6.55;;;2.72;;
69981;SDS011;57319;56.274;43.980;2024-02-26T04:22:05;8.70;;;2.63;;
69981;SDS011;57319;56.274;43.980;2024-02-26T04:24:31;3.47;;;1.98;;
69981;SDS011;57319;56.274;43.980;2024-02-26T04:26:58;4.43;;;2.55;;
69981;SDS011;57319;56.274;43.980;2024-02-26T04:29:24;2.83;;;2.60;;
69981;SDS011;57319;56.274;43.980;2024-02-26T04:31:49;3.38;;;2.33;;
69981;SDS011;57319;56.274;43.980;2024-02-26T04:34:15;2.60;;;2.40;;
69981;SDS011;57319;56.274;43.980;2024-02-26T04:36:41;5.07;;;2.47;;
69981;SDS011;57319;56.274;43.980;2024-02-26T04:39:07;3.25;;;2.03;;
69981;SDS011;57319;56.274;43.980;2024-02-26T04:41:33;3.72;;;2.00;;
69981;SDS011;57319;56.274;43.980;2024-02-26T04:43:59;2.63;;;2.40;;
69981;SDS011;57319;56.274;43.980;2024-02-26T04:46:25;2.35;;;2.17;;
69981;SDS011;57319;56.274;43.980;2024-02-26T04:48:50;2.60;;;2.45;;
69981;SDS011;57319;56.274;43.980;2024-02-26T04:51:16;1.35;;;1.25;;
69981;SDS011;57319;56.274;43.980;2024-02-26T04:53:42;2.45;;;2.35;;
69981;SDS011;57319;56.274;43.980;2024-02-26T04:56:08;4.65;;;2.28;;
69981;SDS011;57319;56.274;43.980;2024-02-26T04:58:33;13.43;;;2.63;;
69981;SDS011;57319;56.274;43.980;2024-02-26T05:00:59;2.85;;;2.50;;
69981;SDS011;57319;56.274;43.980;2024-02-26T05:03:25;6.30;;;2.75;;
69981;SDS011;57319;56.274;43.980;2024-02-26T05:05:51;3.83;;;2.28;;
69981;SDS011;57319;56.274;43.980;2024-02-26T05:08:16;4.07;;;3.08;;
69981;SDS011;57319;56.274;43.980;2024-02-26T05:10:42;1.48;;;1.48;;
69981;SDS011;57319;56.274;43.980;2024-02-26T05:13:10;5.65;;;2.78;;
69981;SDS011;57319;56.274;43.980;2024-02-26T05:15:35;6.65;;;3.03;;
69981;SDS011;57319;56.274;43.980;2024-02-26T05:18:02;2.25;;;2.15;;
69981;SDS011;57319;56.274;43.980;2024-02-26T05:20:28;2.92;;;2.33;;
69981;SDS011;57319;56.274;43.980;2024-02-26T05:22:54;5.75;;;3.20;;
69981;SDS011;57319;56.274;43.980;2024-02-26T05:25:19;3.03;;;2.83;;
69981;SDS011;57319;56.274;43.980;2024-02-26T05:27:45;2.03;;;1.92;;
69981;SDS011;57319;56.274;43.980;2024-02-26T05:30:11;3.50;;;2.75;;
69981;SDS011;57319;56.274;43.980;2024-02-26T05:32:37;5.47;;;2.60;;
69981;SDS011;57319;56.274;43.980;2024-02-26T05:35:03;3.53;;;2.83;;
69981;SDS011;57319;56.274;43.980;2024-02-26T05:37:30;2.25;;;2.08;;
69981;SDS011;57319;56.274;43.980;2024-02-26T05:39:55;3.05;;;2.78;;
69981;SDS011;57319;56.274;43.980;2024-02-26T05:42:21;6.47;;;3.00;;
69981;SDS011;57319;56.274;43.980;2024-02-26T05:44:47;2.70;;;2.45;;
69981;SDS011;57319;56.274;43.980;2024-02-26T05:47:12;8.45;;;2.38;;
69981;SDS011;57319;56.274;43.980;2024-02-26T05:49:42;3.75;;;2.55;;
69981;SDS011;57319;56.274;43.980;2024-02-26T05:52:08;3.40;;;2.55;;
69981;SDS011;57319;56.274;43.980;2024-02-26T05:54:34;5.22;;;2.72;;
69981;SDS011;57319;56.274;43.980;2024-02-26T05:57:00;5.70;;;3.17;;
69981;SDS011;57319;56.274;43.980;2024-02-26T05:59:26;3.53;;;3.08;;
69981;SDS011;57319;56.274;43.980;2024-02-26T06:01:52;3.10;;;2.05;;
69981;SDS011;57319;56.274;43.980;2024-02-26T06:04:17;2.60;;;2.50;;
69981;SDS011;57319;56.274;43.980;2024-02-26T06:06:46;4.93;;;2.95;;
69981;SDS011;57319;56.274;43.980;2024-02-26T06:09:12;4.22;;;2.80;;
69981;SDS011;57319;56.274;43.980;2024-02-26T06:11:38;3.33;;;2.95;;
69981;SDS011;57319;56.274;43.980;2024-02-26T06:14:04;10.48;;;2.78;;
69981;SDS011;57319;56.274;43.980;2024-02-26T06:16:30;3.95;;;3.20;;
69981;SDS011;57319;56.274;43.980;2024-02-26T06:18:56;2.83;;;2.63;;
69981;SDS011;57319;56.274;43.980;2024-02-26T06:21:22;3.10;;;2.90;;
69981;SDS011;57319;56.274;43.980;2024-02-26T06:23:48;9.63;;;3.28;;
69981;SDS011;57319;56.274;43.980;2024-02-26T06:26:14;3.75;;;2.70;;
69981;SDS011;57319;56.274;43.980;2024-02-26T06:28:40;7.00;;;3.20;;
69981;SDS011;57319;56.274;43.980;2024-02-26T06:31:06;8.18;;;3.00;;
69981;SDS011;57319;56.274;43.980;2024-02-26T06:33:31;3.45;;;2.95;;
69981;SDS011;57319;56.274;43.980;2024-02-26T06:35:57;4.22;;;3.42;;
69981;SDS011;57319;56.274;43.980;2024-02-26T06:38:24;4.78;;;3.40;;
69981;SDS011;57319;56.274;43.980;2024-02-26T06:40:49;3.72;;;2.85;;
69981;SDS011;57319;56.274;43.980;2024-02-26T06:43:15;3.20;;;2.80;;
69981;SDS011;57319;56.274;43.980;2024-02-26T06:45:41;6.53;;;3.25;;
69981;SDS011;57319;56.274;43.980;2024-02-26T06:48:07;3.05;;;2.58;;
69981;SDS011;57319;56.274;43.980;2024-02-26T06:50:32;2.60;;;2.40;;
69981;SDS011;57319;56.274;43.980;2024-02-26T06:52:58;3.85;;;2.80;;
69981;SDS011;57319;56.274;43.980;2024-02-26T06:55:24;3.22;;;3.03;;
69981;SDS011;57319;56.274;43.980;2024-02-26T06:57:50;5.30;;;2.35;;
69981;SDS011;57319;56.274;43.980;2024-02-26T07:00:15;12.80;;;3.35;;
69981;SDS011;57319;56.274;43.980;2024-02-26T07:02:42;8.13;;;3.30;;
69981;SDS011;57319;56.274;43.980;2024-02-26T07:05:08;4.22;;;2.88;;
69981;SDS011;57319;56.274;43.980;2024-02-26T07:07:34;3.20;;;2.95;;
69981;SDS011;57319;56.274;43.980;2024-02-26T07:10:00;5.25;;;2.90;;
69981;SDS011;57319;56.274;43.980;2024-02-26T07:12:30;3.97;;;3.03;;
69981;SDS011;57319;56.274;43.980;2024-02-26T07:14:56;3.20;;;2.92;;
69981;SDS011;57319;56.274;43.980;2024-02-26T07:17:22;4.50;;;3.22;;
69981;SDS011;57319;56.274;43.980;2024-02-26T07:19:47;4.53;;;2.85;;
69981;SDS011;57319;56.274;43.980;2024-02-26T07:22:13;4.25;;;3.22;;
69981;SDS011;57319;56.274;43.980;2024-02-26T07:24:39;8.43;;;3.30;;
69981;SDS011;57319;56.274;43.980;2024-02-26T07:27:05;3.65;;;3.22;;
69981;SDS011;57319;56.274;43.980;2024-02-26T07:29:30;5.93;;;3.47;;
69981;SDS011;57319;56.274;43.980;2024-02-26T07:31:56;8.38;;;3.28;;
69981;SDS011;57319;56.274;43.980;2024-02-26T07:34:22;4.22;;;3.28;;
69981;SDS011;57319;56.274;43.980;2024-02-26T07:36:52;9.85;;;3.63;;
69981;SDS011;57319;56.274;43.980;2024-02-26T07:39:19;3.88;;;3.05;;
69981;SDS011;57319;56.274;43.980;2024-02-26T07:41:45;7.75;;;3.92;;
69981;SDS011;57319;56.274;43.980;2024-02-26T07:44:17;9.68;;;3.40;;
69981;SDS011;57319;56.274;43.980;2024-02-26T07:46:42;3.30;;;3.05;;
69981;SDS011;57319;56.274;43.980;2024-02-26T07:49:08;5.95;;;3.28;;
69981;SDS011;57319;56.274;43.980;2024-02-26T07:51:34;3.05;;;2.75;;
69981;SDS011;57319;56.274;43.980;2024-02-26T07:54:00;9.93;;;3.47;;
69981;SDS011;57319;56.274;43.980;2024-02-26T07:56:26;8.55;;;3.60;;
69981;SDS011;57319;56.274;43.980;2024-02-26T07:58:52;9.18;;;3.25;;
69981;SDS011;57319;56.274;43.980;2024-02-26T08:01:17;13.30;;;3.80;;
69981;SDS011;57319;56.274;43.980;2024-02-26T08:03:43;7.55;;;3.30;;
69981;SDS011;57319;56.274;43.980;2024-02-26T08:06:09;4.95;;;3.60;;
69981;SDS011;57319;56.274;43.980;2024-02-26T08:08:34;9.45;;;3.95;;
69981;SDS011;57319;56.274;43.980;2024-02-26T08:11:00;7.40;;;3.80;;
69981;SDS011;57319;56.274;43.980;2024-02-26T08:13:26;4.43;;;3.67;;
69981;SDS011;57319;56.274;43.980;2024-02-26T08:15:51;5.25;;;3.38;;
69981;SDS011;57319;56.274;43.980;2024-02-26T08:18:17;3.40;;;2.97;;
69981;SDS011;57319;56.274;43.980;2024-02-26T08:20:44;5.25;;;3.33;;
69981;SDS011;57319;56.274;43.980;2024-02-26T08:23:10;6.50;;;3.60;;
69981;SDS011;57319;56.274;43.980;2024-02-26T08:25:38;5.95;;;3.13;;
69981;SDS011;57319;56.274;43.980;2024-02-26T08:28:05;11.32;;;3.42;;
69981;SDS011;57319;56.274;43.980;2024-02-26T08:30:31;11.13;;;3.78;;
69981;SDS011;57319;56.274;43.980;2024-02-26T08:33:00;9.45;;;3.78;;
69981;SDS011;57319;56.274;43.980;2024-02-26T08:35:26;9.02;;;3.38;;
69981;SDS011;57319;56.274;43.980;2024-02-26T08:37:52;11.73;;;4.18;;
69981;SDS011;57319;56.274;43.980;2024-02-26T08:40:17;7.25;;;3.50;;
69981;SDS011;57319;56.274;43.980;2024-02-26T08:42:44;9.57;;;3.63;;
69981;SDS011;57319;56.274;43.980;2024-02-26T08:45:10;4.55;;;3.35;;
69981;SDS011;57319;56.274;43.980;2024-02-26T08:47:37;5.20;;;2.92;;
69981;SDS011;57319;56.274;43.980;2024-02-26T08:50:04;13.32;;;4.95;;
69981;SDS011;57319;56.274;43.980;2024-02-26T08:52:30;12.20;;;3.92;;
69981;SDS011;57319;56.274;43.980;2024-02-26T08:54:56;4.63;;;3.60;;
69981;SDS011;57319;56.274;43.980;2024-02-26T08:57:22;4.40;;;3.67;;
69981;SDS011;57319;56.274;43.980;2024-02-26T08:59:48;5.53;;;4.03;;
69981;SDS011;57319;56.274;43.980;2024-02-26T09:02:14;12.57;;;4.18;;
69981;SDS011;57319;56.274;43.980;2024-02-26T09:04:40;6.47;;;3.25;;
69981;SDS011;57319;56.274;43.980;2024-02-26T09:07:05;3.70;;;2.72;;
69981;SDS011;57319;56.274;43.980;2024-02-26T09:09:31;8.95;;;3.78;;
69981;SDS011;57319;56.274;43.980;2024-02-26T09:11:57;7.18;;;3.80;;
69981;SDS011;57319;56.274;43.980;2024-02-26T09:14:23;11.57;;;3.10;;
69981;SDS011;57319;56.274;43.980;2024-02-26T09:16:49;3.30;;;3.08;;
69981;SDS011;57319;56.274;43.980;2024-02-26T09:19:14;7.82;;;3.42;;
69981;SDS011;57319;56.274;43.980;2024-02-26T09:21:44;6.53;;;3.15;;
69981;SDS011;57319;56.274;43.980;2024-02-26T09:24:10;3.97;;;3.38;;
69981;SDS011;57319;56.274;43.980;2024-02-26T09:26:37;11.45;;;4.05;;
69981;SDS011;57319;56.274;43.980;2024-02-26T09:29:03;9.35;;;3.70;;
69981;SDS011;57319;56.274;43.980;2024-02-26T09:31:29;7.55;;;3.40;;
69981;SDS011;57319;56.274;43.980;2024-02-26T09:33:56;3.72;;;3.05;;
69981;SDS011;57319;56.274;43.980;2024-02-26T09:36:21;7.57;;;2.90;;
69981;SDS011;57319;56.274;43.980;2024-02-26T09:38:48;4.57;;;3.35;;
69981;SDS011;57319;56.274;43.980;2024-02-26T09:41:16;4.72;;;3.17;;
69981;SDS011;57319;56.274;43.980;2024-02-26T09:43:45;10.32;;;3.47;;
69981;SDS011;57319;56.274;43.980;2024-02-26T09:46:13;12.07;;;3.35;;
69981;SDS011;57319;56.274;43.980;2024-02-26T09:48:41;4.50;;;2.90;;
69981;SDS011;57319;56.274;43.980;2024-02-26T09:51:10;3.75;;;3.10;;
69981;SDS011;57319;56.274;43.980;2024-02-26T09:53:37;6.60;;;2.90;;
69981;SDS011;57319;56.274;43.980;2024-02-26T09:56:07;4.72;;;2.60;;
69981;SDS011;57319;56.274;43.980;2024-02-26T09:58:33;11.52;;;3.50;;
69981;SDS011;57319;56.274;43.980;2024-02-26T10:01:00;4.03;;;3.15;;
69981;SDS011;57319;56.274;43.980;2024-02-26T10:03:34;5.13;;;2.92;;
69981;SDS011;57319;56.274;43.980;2024-02-26T10:06:08;5.20;;;3.00;;
69981;SDS011;57319;56.274;43.980;2024-02-26T10:08:34;3.50;;;2.80;;
69981;SDS011;57319;56.274;43.980;2024-02-26T10:11:02;4.63;;;2.97;;
69981;SDS011;57319;56.274;43.980;2024-02-26T10:13:29;3.60;;;2.10;;
69981;SDS011;57319;56.274;43.980;2024-02-26T10:15:55;7.50;;;3.00;;
69981;SDS011;57319;56.274;43.980;2024-02-26T10:18:22;3.95;;;2.60;;
69981;SDS011;57319;56.274;43.980;2024-02-26T10:21:01;8.65;;;2.95;;
69981;SDS011;57319;56.274;43.980;2024-02-26T10:23:27;3.05;;;2.67;;
69981;SDS011;57319;56.274;43.980;2024-02-26T10:25:56;4.47;;;2.60;;
69981;SDS011;57319;56.274;43.980;2024-02-26T10:28:22;13.65;;;3.38;;
69981;SDS011;57319;56.274;43.980;2024-02-26T10:30:48;3.20;;;2.78;;
69981;SDS011;57319;56.274;43.980;2024-02-26T10:33:14;7.82;;;2.72;;
69981;SDS011;57319;56.274;43.980;2024-02-26T10:35:45;6.30;;;2.83;;
69981;SDS011;57319;56.274;43.980;2024-02-26T10:38:11;3.70;;;2.35;;
69981;SDS011;57319;56.274;43.980;2024-02-26T10:40:37;2.92;;;2.72;;
69981;SDS011;57319;56.274;43.980;2024-02-26T10:43:03;3.95;;;2.45;;
69981;SDS011;57319;56.274;43.980;2024-02-26T10:45:29;3.70;;;2.60;;
69981;SDS011;57319;56.274;43.980;2024-02-26T10:47:54;2.63;;;2.50;;
69981;SDS011;57319;56.274;43.980;2024-02-26T10:50:20;5.80;;;3.10;;
69981;SDS011;57319;56.274;43.980;2024-02-26T10:52:46;5.78;;;3.40;;
69981;SDS011;57319;56.274;43.980;2024-02-26T10:55:15;5.93;;;2.78;;
69981;SDS011;57319;56.274;43.980;2024-02-26T10:57:45;8.18;;;2.50;;
69981;SDS011;57319;56.274;43.980;2024-02-26T11:00:14;10.38;;;2.53;;
69981;SDS011;57319;56.274;43.980;2024-02-26T11:02:41;4.53;;;2.33;;
69981;SDS011;57319;56.274;43.980;2024-02-26T11:05:09;4.75;;;3.17;;
69981;SDS011;57319;56.274;43.980;2024-02-26T11:07:36;9.00;;;2.60;;
69981;SDS011;57319;56.274;43.980;2024-02-26T11:10:03;2.90;;;2.47;;
69981;SDS011;57319;56.274;43.980;2024-02-26T11:12:31;7.88;;;3.00;;
69981;SDS011;57319;56.274;43.980;2024-02-26T11:14:58;7.28;;;2.40;;
69981;SDS011;57319;56.274;43.980;2024-02-26T11:17:27;4.63;;;3.00;;
69981;SDS011;57319;56.274;43.980;2024-02-26T11:19:57;5.93;;;2.80;;
69981;SDS011;57319;56.274;43.980;2024-02-26T11:22:26;4.82;;;2.63;;
69981;SDS011;57319;56.274;43.980;2024-02-26T11:24:52;7.40;;;2.97;;
69981;SDS011;57319;56.274;43.980;2024-02-26T11:27:21;3.20;;;2.83;;
69981;SDS011;57319;56.274;43.980;2024-02-26T11:29:51;5.72;;;2.40;;
69981;SDS011;57319;56.274;43.980;2024-02-26T11:32:19;6.80;;;2.80;;
69981;SDS011;57319;56.274;43.980;2024-02-26T11:34:46;3.13;;;2.20;;
69981;SDS011;57319;56.274;43.980;2024-02-26T11:37:12;4.43;;;3.08;;
69981;SDS011;57319;56.274;43.980;2024-02-26T11:39:42;4.15;;;2.50;;
69981;SDS011;57319;56.274;43.980;2024-02-26T11:42:13;6.07;;;2.40;;
69981;SDS011;57319;56.274;43.980;2024-02-26T11:44:41;5.10;;;2.53;;
69981;SDS011;57319;56.274;43.980;2024-02-26T11:47:13;10.52;;;2.70;;
69981;SDS011;57319;56.274;43.980;2024-02-26T11:49:43;5.07;;;2.53;;
69981;SDS011;57319;56.274;43.980;2024-02-26T11:52:09;3.92;;;2.55;;
69981;SDS011;57319;56.274;43.980;2024-02-26T11:54:51;9.93;;;2.80;;
69981;SDS011;57319;56.274;43.980;2024-02-26T12:00:14;12.60;;;3.00;;
69981;SDS011;57319;56.274;43.980;2024-02-26T12:02:52;2.85;;;2.17;;
69981;SDS011;57319;56.274;43.980;2024-02-26T12:05:32;3.33;;;2.35;;
69981;SDS011;57319;56.274;43.980;2024-02-26T12:07:59;6.43;;;2.72;;
69981;SDS011;57319;56.274;43.980;2024-02-26T12:10:38;2.75;;;2.40;;
69981;SDS011;57319;56.274;43.980;2024-02-26T12:13:11;4.88;;;2.72;;
69981;SDS011;57319;56.274;43.980;2024-02-26T12:15:57;3.65;;;2.88;;
69981;SDS011;57319;56.274;43.980;2024-02-26T12:18:41;5.70;;;2.85;;
69981;SDS011;57319;56.274;43.980;2024-02-26T12:21:10;2.60;;;2.40;;
69981;SDS011;57319;56.274;43.980;2024-02-26T12:23:38;4.00;;;2.78;;
69981;SDS011;57319;56.274;43.980;2024-02-26T12:26:03;7.05;;;2.70;;
69981;SDS011;57319;56.274;43.980;2024-02-26T12:28:29;6.85;;;3.00;;
69981;SDS011;57319;56.274;43.980;2024-02-26T12:30:55;4.95;;;2.78;;
69981;SDS011;57319;56.274;43.980;2024-02-26T12:33:21;5.97;;;2.50;;
69981;SDS011;57319;56.274;43.980;2024-02-26T12:35:47;3.17;;;2.83;;
69981;SDS011;57319;56.274;43.980;2024-02-26T12:38:15;7.68;;;2.40;;
69981;SDS011;57319;56.274;43.980;2024-02-26T12:40:41;9.32;;;3.00;;
69981;SDS011;57319;56.274;43.980;2024-02-26T12:43:07;4.55;;;2.63;;
69981;SDS011;57319;56.274;43.980;2024-02-26T12:45:41;2.78;;;2.58;;
69981;SDS011;57319;56.274;43.980;2024-02-26T12:48:08;14.10;;;2.88;;
69981;SDS011;57319;56.274;43.980;2024-02-26T12:50:34;2.65;;;2.45;;
69981;SDS011;57319;56.274;43.980;2024-02-26T12:53:00;3.97;;;2.60;;
69981;SDS011;57319;56.274;43.980;2024-02-26T12:55:26;7.68;;;2.67;;
69981;SDS011;57319;56.274;43.980;2024-02-26T12:57:52;5.93;;;3.10;;
69981;SDS011;57319;56.274;43.980;2024-02-26T13:00:21;5.82;;;2.65;;
69981;SDS011;57319;56.274;43.980;2024-02-26T13:02:49;9.60;;;2.60;;
69981;SDS011;57319;56.274;43.980;2024-02-26T13:05:17;10.88;;;3.40;;
69981;SDS011;57319;56.274;43.980;2024-02-26T13:07:44;3.75;;;3.45;;
69981;SDS011;57319;56.274;43.980;2024-02-26T13:10:12;6.55;;;3.95;;
69981;SDS011;57319;56.274;43.980;2024-02-26T13:12:45;5.47;;;2.90;;
69981;SDS011;57319;56.274;43.980;2024-02-26T13:15:21;12.45;;;2.85;;
69981;SDS011;57319;56.274;43.980;2024-02-26T13:17:48;5.68;;;3.13;;
69981;SDS011;57319;56.274;43.980;2024-02-26T13:20:27;6.82;;;3.10;;
69981;SDS011;57319;56.274;43.980;2024-02-26T13:23:03;8.15;;;3.78;;
69981;SDS011;57319;56.274;43.980;2024-02-26T13:25:30;3.92;;;3.08;;
69981;SDS011;57319;56.274;43.980;2024-02-26T13:28:06;3.63;;;3.30;;
69981;SDS011;57319;56.274;43.980;2024-02-26T13:30:33;10.85;;;3.28;;
69981;SDS011;57319;56.274;43.980;2024-02-26T13:33:06;7.20;;;3.58;;
69981;SDS011;57319;56.274;43.980;2024-02-26T13:35:36;6.85;;;3.30;;
69981;SDS011;57319;56.274;43.980;2024-02-26T13:38:02;4.70;;;3.30;;
69981;SDS011;57319;56.274;43.980;2024-02-26T13:40:28;4.00;;;3.15;;
69981;SDS011;57319;56.274;43.980;2024-02-26T13:42:54;4.72;;;3.33;;
69981;SDS011;57319;56.274;43.980;2024-02-26T13:45:20;5.80;;;3.28;;
69981;SDS011;57319;56.274;43.980;2024-02-26T13:47:46;6.63;;;3.55;;
69981;SDS011;57319;56.274;43.980;2024-02-26T13:50:11;7.90;;;2.90;;
69981;SDS011;57319;56.274;43.980;2024-02-26T13:52:37;8.88;;;3.65;;
69981;SDS011;57319;56.274;43.980;2024-02-26T13:55:03;10.20;;;3.42;;
69981;SDS011;57319;56.274;43.980;2024-02-26T13:57:30;8.85;;;4.30;;
69981;SDS011;57319;56.274;43.980;2024-02-26T13:59:55;9.27;;;3.42;;
69981;SDS011;57319;56.274;43.980;2024-02-26T14:02:21;5.80;;;3.35;;
69981;SDS011;57319;56.274;43.980;2024-02-26T14:04:47;3.30;;;2.90;;
69981;SDS011;57319;56.274;43.980;2024-02-26T14:07:13;8.23;;;3.33;;
69981;SDS011;57319;56.274;43.980;2024-02-26T14:09:39;4.95;;;3.17;;
69981;SDS011;57319;56.274;43.980;2024-02-26T14:12:04;9.10;;;3.47;;
69981;SDS011;57319;56.274;43.980;2024-02-26T14:14:30;8.07;;;3.30;;
69981;SDS011;57319;56.274;43.980;2024-02-26T14:16:59;8.32;;;3.40;;
69981;SDS011;57319;56.274;43.980;2024-02-26T14:19:24;4.53;;;3.15;;
69981;SDS011;57319;56.274;43.980;2024-02-26T14:21:51;6.47;;;3.15;;
69981;SDS011;57319;56.274;43.980;2024-02-26T14:24:17;3.85;;;3.35;;
69981;SDS011;57319;56.274;43.980;2024-02-26T14:26:42;11.25;;;3.33;;
69981;SDS011;57319;56.274;43.980;2024-02-26T14:29:08;5.55;;;3.42;;
69981;SDS011;57319;56.274;43.980;2024-02-26T14:31:34;15.75;;;3.42;;
69981;SDS011;57319;56.274;43.980;2024-02-26T14:34:00;9.50;;;3.20;;